Terminal Aerodrome Forecast
Issued by NWS

Home | Current Version | Previous Version | Text Only | Print | Product List | Glossary On
Versions: 1 2 3 4 5 6 7 8 9 10 11 12 13 14
000
FTUS44 KLIX 171302 AAA
TAFHDC
TAF AMD
KHDC 171302Z 1713/1812 17014G17KT 4SM RA OVC005 WS020/17040KT
      TEMPO 1713/1715 1SM SHRA OVC003
     FM171700 19006KT P6SM BKN016 OVC030
     FM172000 17004KT P6SM SCT018 BKN050
     FM180500 VRB03KT 5SM BR SCT003 BKN200
     FM181000 VRB03KT 1/2SM FG BKN003=

USA.gov is the U.S. government's official web portal to all federal, state and local government web resources and services.